Time;durP1;ratioP1;P1;durP2;ratioP2;P2;SDS_P1;SDS_P2;PMS_P1;PMS_P2;Temp;Humidity;BMP_temperature;BMP_pressure;BME280_temperature;BME280_humidity;BME280_pressure;Samples;Min_cycle;Max_cycle;Signal;HPM_P1;HPM_P2
2022/02/05 00:01:51;;;;;;;28.50;15.05;;;;;;;1.39;91.42;99861.78;6302849;28;20044;-73
2022/02/05 00:04:53;;;;;;;32.47;15.52;;;;;;;1.88;87.82;99864.75;6302734;28;20131;-74
2022/02/05 00:08:11;;;;;;;36.40;15.77;;;;;;;1.87;87.51;99863.06;6302921;28;20040;-73
2022/02/05 00:11:57;;;;;;;31.52;15.90;;;;;;;1.98;86.36;99866.19;6320637;28;20036;-73
2022/02/05 00:41:11;;;;;;;22.70;12.35;;;;;;;1.87;84.95;99878.50;6321277;28;20036;-73
2022/02/05 00:44:12;;;;;;;25.27;12.57;;;;;;;1.58;87.06;99859.56;6324987;28;20055;-73
2022/02/05 00:47:13;;;;;;;23.33;12.48;;;;;;;1.87;85.98;99863.91;6324920;28;20048;-73
2022/02/05 00:50:20;;;;;;;21.65;12.18;;;;;;;1.56;88.13;99869.88;6306698;28;20040;-72
2022/02/05 00:56:36;;;;;;;22.15;12.20;;;;;;;1.65;88.43;99880.81;6324642;28;20040;-72
2022/02/05 00:59:36;;;;;;;22.25;11.77;;;;;;;1.61;88.61;99877.50;6308894;28;20043;-72
2022/02/05 01:02:37;;;;;;;22.00;12.00;;;;;;;1.69;88.39;99874.69;6306420;28;20036;-73
2022/02/05 01:05:38;;;;;;;19.40;11.10;;;;;;;1.71;87.82;99865.22;6289991;28;20127;-72
2022/02/05 01:08:39;;;;;;;23.25;11.60;;;;;;;1.71;87.10;99863.50;6306478;28;20040;-72
2022/02/05 01:11:40;;;;;;;22.60;11.05;;;;;;;1.59;88.66;99868.97;6324411;28;20043;-73
2022/02/05 01:14:48;;;;;;;20.58;10.88;;;;;;;1.60;88.35;99871.50;6306120;28;20040;-73
2022/02/05 01:17:55;;;;;;;25.33;10.95;;;;;;;1.63;88.70;99868.00;6324166;28;20036;-73
2022/02/05 01:21:08;;;;;;;18.63;10.15;;;;;;;1.56;89.41;99859.59;6324574;28;20393;-73
2022/02/05 01:24:13;;;;;;;;;;;;;;;1.55;89.64;99867.38;6308093;28;20415;-73
2022/02/05 01:30:42;;;;;;;20.08;9.43;;;;;;;1.39;90.58;99854.91;6282362;28;20048;-73
2022/02/05 01:33:58;;;;;;;19.67;10.32;;;;;;;1.46;90.74;99849.59;6273928;28;20040;-72
2022/02/05 01:56:43;;;;;;;21.15;10.77;;;;;;;1.49;91.28;99865.81;6323229;28;20046;-73
2022/02/05 02:12:49;;;;;;;18.33;10.13;;;;;;;1.56;91.43;99875.03;6323203;28;20511;-73
2022/02/05 02:25:48;;;;;;;25.90;11.60;;;;;;;1.69;90.72;99883.28;6305543;28;20070;-73
2022/02/05 02:31:54;;;;;;;17.63;9.48;;;;;;;1.61;91.03;99880.06;6322391;28;20060;-72
2022/02/05 02:35:02;;;;;;;19.10;9.77;;;;;;;1.60;92.12;99880.94;6322176;28;20067;-73
2022/02/05 02:38:09;;;;;;;18.60;9.95;;;;;;;1.47;92.88;99885.56;6322388;28;20036;-73
2022/02/05 02:41:20;;;;;;;15.75;9.48;;;;;;;1.55;92.58;99887.94;6305157;28;20058;-73
2022/02/05 02:44:21;;;;;;;16.67;9.40;;;;;;;1.54;93.30;99873.38;6304184;28;20109;-73
2022/02/05 02:47:23;;;;;;;20.33;10.35;;;;;;;1.49;94.73;99873.53;6287411;28;20072;-73
2022/02/05 02:56:52;;;;;;;16.58;9.40;;;;;;;1.50;95.28;99857.19;6321773;28;20098;-73
2022/02/05 02:59:58;;;;;;;21.00;9.93;;;;;;;1.53;95.11;99849.41;6304924;28;20492;-73
2022/02/05 03:02:59;;;;;;;22.90;10.00;;;;;;;1.63;94.54;99842.28;6321684;28;20044;-73
2022/02/05 03:05:59;;;;;;;16.17;9.32;;;;;;;1.60;94.63;99835.47;6321106;28;20051;-73
2022/02/05 03:09:00;;;;;;;20.08;9.88;;;;;;;1.60;95.11;99840.63;6303609;28;20048;-73
2022/02/05 03:12:01;;;;;;;14.63;8.82;;;;;;;1.60;95.49;99848.34;6303449;28;20465;-73
2022/02/05 03:15:04;;;;;;;20.38;9.20;;;;;;;1.61;95.68;99841.50;6321333;28;20040;-73
2022/02/05 03:18:28;;;;;;;15.55;9.55;;;;;;;1.53;96.74;99838.28;6321360;28;20044;-69
2022/02/05 03:21:27;;;;;;;17.75;8.95;;;;;;;1.57;96.52;99842.47;6321096;28;20071;-69
2022/02/05 03:24:28;;;;;;;18.85;9.52;;;;;;;1.63;96.32;99833.72;6303125;28;20484;-68
2022/02/05 03:27:29;;;;;;;19.35;8.80;;;;;;;1.56;97.62;99830.47;6286733;28;20047;-69
2022/02/05 03:30:30;;;;;;;17.08;8.98;;;;;;;1.56;97.78;99833.88;6321245;28;20036;-69
2022/02/05 03:33:31;;;;;;;14.13;8.60;;;;;;;1.56;97.85;99833.03;6286734;28;20149;-69
2022/02/05 03:36:37;;;;;;;16.55;8.90;;;;;;;1.43;98.50;99840.25;6303187;28;20036;-69
2022/02/05 03:39:37;;;;;;;18.50;9.43;;;;;;;1.41;99.69;99837.72;6270098;28;20060;-69
2022/02/05 03:42:38;;;;;;;19.20;10.20;;;;;;;1.42;99.47;99841.13;6303282;28;20040;-70
2022/02/05 03:45:39;;;;;;;17.38;9.77;;;;;;;1.47;99.13;99839.28;6286257;28;20470;-68
2022/02/05 03:48:40;;;;;;;17.42;8.88;;;;;;;1.55;98.94;99839.09;6302904;28;20393;-68
2022/02/05 03:51:41;;;;;;;15.93;9.13;;;;;;;1.95;95.56;99841.38;6320875;28;20050;-68
2022/02/05 03:54:44;;;;;;;15.73;8.52;;;;;;;1.70;96.51;99835.25;6302970;28;20044;-69
2022/02/05 03:57:47;;;;;;;16.10;9.20;;;;;;;1.45;99.26;99828.19;6303237;28;20079;-69
2022/02/05 04:00:48;;;;;;;17.15;9.18;;;;;;;1.52;99.30;99832.28;6253679;28;20143;-69
2022/02/05 04:03:48;;;;;;;18.83;9.60;;;;;;;1.56;99.37;99833.88;6320816;28;20044;-69
2022/02/05 04:06:49;;;;;;;16.70;9.40;;;;;;;1.53;99.43;99828.00;6320680;28;20047;-68
2022/02/05 04:09:56;;;;;;;13.13;8.77;;;;;;;1.57;99.09;99815.00;6286215;28;20531;-68
2022/02/05 04:16:22;;;;;;;17.73;9.10;;;;;;;1.40;100.00;99818.06;6294296;28;20141;-69
2022/02/05 04:19:23;;;;;;;20.15;9.45;;;;;;;1.36;100.00;99820.72;6308513;28;20044;-69
2022/02/05 04:22:24;;;;;;;18.83;9.38;;;;;;;1.43;100.00;99821.41;6307652;28;20040;-69
2022/02/05 04:25:25;;;;;;;17.20;8.85;;;;;;;1.45;100.00;99828.19;6325375;28;20186;-69
2022/02/05 04:28:26;;;;;;;17.50;9.85;;;;;;;1.71;99.05;99827.50;6325383;28;20036;-69
2022/02/05 04:31:27;;;;;;;17.23;9.73;;;;;;;2.01;95.32;99822.34;6325319;28;20036;-69
2022/02/05 04:34:28;;;;;;;18.50;9.48;;;;;;;2.09;94.51;99822.94;6307293;28;20043;-68
2022/02/05 04:37:30;;;;;;;16.33;9.02;;;;;;;2.15;93.92;99827.91;6307088;28;20044;-69
2022/02/05 04:40:40;;;;;;;;;;;;;;;1.99;95.05;99817.22;6325666;28;20040;-73
2022/02/05 04:53:40;;;;;;;19.70;10.30;;;;;;;2.11;94.75;99830.63;6309621;28;20139;-73
2022/02/05 05:03:29;;;;;;;16.65;9.15;;;;;;;2.18;94.76;99827.84;6324509;28;20040;-73
2022/02/05 05:06:32;;;;;;;17.08;9.10;;;;;;;2.08;95.04;99836.72;6307666;28;20050;-73
2022/02/05 05:09:50;;;;;;;15.52;8.10;;;;;;;2.02;95.37;99831.75;6324473;28;20036;-73
2022/02/05 05:13:02;;;;;;;17.77;9.35;;;;;;;2.12;95.26;99833.16;6292059;28;20040;-74
2022/02/05 05:19:27;;;;;;;20.15;10.10;;;;;;;2.03;95.97;99850.59;6292089;28;20479;-73
2022/02/05 05:22:28;;;;;;;20.02;9.60;;;;;;;2.08;95.70;99859.88;6308245;28;20044;-73
2022/02/05 05:25:29;;;;;;;22.55;10.18;;;;;;;2.07;96.55;99852.19;6305937;28;20512;-73
2022/02/05 05:28:30;;;;;;;20.52;10.25;;;;;;;2.22;95.43;99859.47;6288549;28;20036;-73
2022/02/05 05:31:31;;;;;;;17.88;10.05;;;;;;;2.25;94.81;99874.81;6305863;28;20044;-73
2022/02/05 05:34:32;;;;;;;20.48;10.65;;;;;;;2.15;95.84;99860.53;6289291;28;20047;-73
2022/02/05 05:37:33;;;;;;;23.15;11.07;;;;;;;2.07;97.45;99870.22;6272280;28;20568;-73
2022/02/05 05:40:36;;;;;;;17.88;9.52;;;;;;;1.96;97.93;99873.09;6323628;28;20040;-73
2022/02/05 05:46:44;;;;;;;17.92;10.68;;;;;;;1.73;99.59;99877.16;6305502;28;20041;-73
2022/02/05 05:52:52;;;;;;;18.98;9.95;;;;;;;1.35;100.00;99884.16;6323370;28;20040;-73
2022/02/05 05:55:53;;;;;;;17.70;9.55;;;;;;;1.39;100.00;99890.06;6288380;28;20198;-73
2022/02/05 05:58:55;;;;;;;17.73;10.00;;;;;;;1.47;100.00;99900.16;6323332;28;20040;-73
2022/02/05 06:01:56;;;;;;;18.17;9.75;;;;;;;1.47;100.00;99901.00;6323267;28;20044;-69
2022/02/05 06:04:56;;;;;;;17.75;10.45;;;;;;;1.48;100.00;99910.38;6323067;28;20043;-69
2022/02/05 06:07:58;;;;;;;17.90;10.18;;;;;;;1.39;100.00;99924.34;6322956;28;20036;-68
2022/02/05 06:10:59;;;;;;;20.48;9.93;;;;;;;1.41;100.00;99916.59;6288621;28;20040;-68
2022/02/05 06:13:59;;;;;;;20.98;10.85;;;;;;;1.33;100.00;99900.50;6322757;28;20040;-69
2022/02/05 06:17:07;;;;;;;16.85;10.00;;;;;;;1.59;100.00;99913.53;6304799;28;20036;-69
2022/02/05 06:20:08;;;;;;;20.23;9.80;;;;;;;1.27;100.00;99910.94;6305610;28;20127;-73
2022/02/05 06:23:09;;;;;;;18.20;9.23;;;;;;;1.27;100.00;99909.22;6322730;28;20097;-73
2022/02/05 06:26:10;;;;;;;20.15;9.75;;;;;;;1.08;100.00;99895.16;6304448;28;20461;-73
2022/02/05 06:29:11;;;;;;;23.15;10.65;;;;;;;1.12;100.00;99889.88;6287879;28;20044;-73
2022/02/05 06:32:15;;;;;;;20.75;10.63;;;;;;;1.13;100.00;99880.44;6304363;28;20040;-73
2022/02/05 06:35:16;;;;;;;19.27;10.05;;;;;;;1.19;100.00;99886.28;6322383;28;20107;-73
2022/02/05 06:38:17;;;;;;;17.40;9.63;;;;;;;1.12;100.00;99892.47;6304419;28;20036;-73
2022/02/05 06:41:18;;;;;;;17.05;9.80;;;;;;;1.35;100.00;99884.16;6322335;28;20040;-73
2022/02/05 06:44:19;;;;;;;19.83;10.90;;;;;;;1.21;100.00;99899.09;6304175;28;20040;-73
2022/02/05 06:47:20;;;;;;;19.73;11.30;;;;;;;1.32;100.00;99916.81;6303935;28;20040;-73
2022/02/05 06:50:22;;;;;;;19.13;10.52;;;;;;;1.28;100.00;99928.06;6321852;28;20579;-73
2022/02/05 06:53:23;;;;;;;19.73;11.82;;;;;;;1.31;100.00;99921.09;6287711;28;20484;-73
2022/02/05 06:56:24;;;;;;;23.77;10.43;;;;;;;1.33;100.00;99924.47;6321743;28;20047;-73
2022/02/05 06:59:25;;;;;;;21.55;10.77;;;;;;;1.44;100.00;99920.81;6321741;28;20139;-73
2022/02/05 07:02:26;;;;;;;20.77;11.15;;;;;;;1.47;100.00;99919.00;6303778;28;20040;-73
2022/02/05 07:05:27;;;;;;;18.80;10.35;;;;;;;1.45;100.00;99931.06;6303691;28;20052;-73
2022/02/05 07:08:28;;;;;;;33.05;17.77;;;;;;;1.56;100.00;99928.19;6321612;28;20048;-73
2022/02/05 07:11:29;;;;;;;34.33;17.40;;;;;;;1.64;100.00;99931.41;6303552;28;20122;-73
2022/02/05 07:14:37;;;;;;;39.13;20.08;;;;;;;1.66;100.00;99929.66;6321482;28;20043;-73
2022/02/05 07:20:47;;;;;;;24.35;12.02;;;;;;;1.69;100.00;99929.59;6303504;28;20043;-73
2022/02/05 07:24:10;;;;;;;21.05;10.30;;;;;;;1.80;100.00;99927.53;6287995;28;20036;-73
2022/02/05 07:30:30;;;;;;;21.25;12.18;;;;;;;1.91;100.00;99926.41;6305988;28;20044;-73
2022/02/05 07:33:31;;;;;;;22.83;12.52;;;;;;;2.07;100.00;99921.69;6321189;28;20044;-73
2022/02/05 07:36:32;;;;;;;23.48;13.85;;;;;;;2.04;100.00;99907.19;6320712;28;20093;-73
2022/02/05 07:39:41;;;;;;;22.23;11.98;;;;;;;2.15;100.00;99919.75;6302815;28;20114;-73
2022/02/05 07:42:42;;;;;;;18.05;9.80;;;;;;;2.10;100.00;99919.88;6321250;28;20656;-74
2022/02/05 07:45:43;;;;;;;28.92;13.80;;;;;;;2.17;100.00;99913.66;6303373;28;20052;-73
2022/02/05 07:48:44;;;;;;;33.20;15.27;;;;;;;2.29;100.00;99916.78;6321098;28;20473;-68
2022/02/05 07:51:45;;;;;;;31.17;15.25;;;;;;;2.34;100.00;99915.75;6328225;28;20491;-68
2022/02/05 07:54:46;;;;;;;33.40;15.57;;;;;;;2.34;100.00;99912.31;6329490;28;20437;-70
2022/02/05 07:57:47;;;;;;;25.67;14.52;;;;;;;2.51;100.00;99909.25;6311157;28;20181;-73
2022/02/05 08:00:48;;;;;;;27.98;15.38;;;;;;;2.72;100.00;99915.47;6311355;28;20081;-75
2022/02/05 08:03:49;;;;;;;25.58;13.93;;;;;;;2.63;100.00;99921.75;6329267;28;20043;-72
2022/02/05 08:06:51;;;;;;;28.63;15.88;;;;;;;2.85;100.00;99909.06;6329175;28;20543;-75
2022/02/05 08:12:56;;;;;;;31.13;16.20;;;;;;;2.90;100.00;99914.91;6329208;28;20378;-72
2022/02/05 08:16:09;;;;;;;32.70;16.83;;;;;;;3.39;96.85;99910.72;6294857;28;20403;-72
2022/02/05 08:19:10;;;;;;;39.50;19.63;;;;;;;3.63;94.52;99906.47;6328962;28;20051;-73
2022/02/05 08:22:11;;;;;;;37.45;17.40;;;;;;;3.90;92.80;99901.22;6294386;28;20423;-73
2022/02/05 08:25:12;;;;;;;35.70;19.35;;;;;;;3.85;92.34;99890.25;6310853;28;20044;-73
2022/02/05 08:28:13;;;;;;;29.35;16.38;;;;;;;3.43;96.73;99890.81;6310825;28;20089;-73
2022/02/05 08:31:15;;;;;;;31.67;17.38;;;;;;;3.50;96.79;99892.31;6294185;28;20040;-72
2022/02/05 08:34:16;;;;;;;30.58;17.55;;;;;;;3.97;93.00;99901.84;6294323;28;20077;-73
2022/02/05 08:37:18;;;;;;;31.90;17.25;;;;;;;3.82;95.12;99890.34;6294172;28;20043;-73
2022/02/05 08:40:19;;;;;;;37.72;19.73;;;;;;;4.15;94.24;99906.34;6310949;28;20040;-70
2022/02/05 08:43:21;;;;;;;31.55;17.27;;;;;;;4.50;91.85;99921.41;6310725;28;20404;-68
2022/02/05 08:46:21;;;;;;;34.17;16.95;;;;;;;4.80;89.71;99911.66;6310711;28;20052;-68
2022/02/05 08:49:22;;;;;;;34.97;21.65;;;;;;;4.82;89.05;99882.25;6293835;28;20058;-68
2022/02/05 08:52:25;;;;;;;40.15;19.92;;;;;;;4.88;90.08;99900.97;6310678;28;20063;-69
2022/02/05 08:55:31;;;;;;;37.80;20.48;;;;;;;4.88;91.37;99913.91;6310589;28;20040;-68
2022/02/05 08:58:39;;;;;;;34.72;19.38;;;;;;;4.84;90.40;99895.94;6328382;28;20044;-68
2022/02/05 09:01:56;;;;;;;39.63;20.15;;;;;;;4.88;90.06;99903.56;6307838;28;20041;-75
2022/02/05 09:08:20;;;;;;;35.30;19.85;;;;;;;4.91;90.38;99939.66;6307768;28;20110;-73
2022/02/05 09:17:26;;;;;;;35.30;19.67;;;;;;;4.99;93.37;99945.38;6306326;28;20067;-73
2022/02/05 09:20:27;;;;;;;39.97;21.00;;;;;;;5.38;91.71;99942.91;6324585;28;20079;-74
2022/02/05 09:23:28;;;;;;;39.35;20.65;;;;;;;5.63;90.38;99939.28;6289436;28;20039;-73
2022/02/05 09:26:31;;;;;;;30.20;19.02;;;;;;;5.54;89.86;99935.34;6324177;28;20572;-69
2022/02/05 09:29:39;;;;;;;32.70;20.10;;;;;;;5.47;91.34;99946.84;6289555;28;20119;-74
2022/02/05 09:32:39;;;;;;;39.90;20.30;;;;;;;5.69;89.39;99940.78;6306022;28;20111;-73
2022/02/05 09:35:41;;;;;;;31.65;19.55;;;;;;;5.98;87.29;99939.56;6323507;28;20040;-73
2022/02/05 09:38:41;;;;;;;39.25;21.30;;;;;;;6.58;84.74;99945.47;6305660;28;20452;-69
2022/02/05 09:41:44;;;;;;;38.13;20.85;;;;;;;6.80;83.50;99952.25;6289125;28;20047;-69
2022/02/05 09:44:45;;;;;;;43.38;20.80;;;;;;;6.99;82.37;99952.22;6323649;28;20123;-69
2022/02/05 09:47:46;;;;;;;41.05;21.58;;;;;;;7.12;82.09;99945.53;6305726;28;20492;-68
2022/02/05 09:50:47;;;;;;;32.78;19.20;;;;;;;7.29;81.63;99943.84;6305247;28;20052;-73
2022/02/05 09:53:50;;;;;;;39.38;20.20;;;;;;;7.45;81.32;99948.25;6305456;28;20484;-73
2022/02/05 09:56:51;;;;;;;36.47;20.33;;;;;;;7.69;80.74;99941.88;6304030;28;20046;-73
2022/02/05 09:59:56;;;;;;;35.28;19.23;;;;;;;7.92;79.07;99933.75;6322240;28;20044;-69
2022/02/05 10:02:59;;;;;;;31.63;19.02;;;;;;;7.98;78.76;99936.03;6323031;28;20075;-69
2022/02/05 10:06:33;;;;;;;25.13;15.45;;;;;;;8.18;78.06;99927.19;6323037;28;20055;-72
2022/02/05 10:09:34;;;;;;;25.98;14.93;;;;;;;8.18;77.43;99926.34;6304692;28;20056;-72
2022/02/05 10:12:35;;;;;;;27.77;13.68;;;;;;;8.28;77.67;99917.97;6304663;28;20036;-73
2022/02/05 10:15:39;;;;;;;34.63;18.45;;;;;;;8.53;76.67;99923.66;6304794;28;20072;-73
2022/02/05 10:18:43;;;;;;;32.22;17.65;;;;;;;8.87;76.43;99914.81;6304967;28;20048;-73
2022/02/05 10:21:44;;;;;;;33.38;16.83;;;;;;;9.01;76.01;99912.25;6304590;28;20086;-69
2022/02/05 10:24:52;;;;;;;24.33;12.45;;;;;;;9.19;73.48;99915.59;6322675;28;20047;-69
2022/02/05 10:27:53;;;;;;;22.08;13.30;;;;;;;9.42;73.09;99916.03;6304384;28;20055;-70
2022/02/05 10:30:55;;;;;;;21.08;11.40;;;;;;;9.37;72.68;99920.63;6322423;28;20036;-69
2022/02/05 10:34:07;;;;;;;17.00;10.63;;;;;;;9.41;69.81;99914.31;6287996;28;20404;-73
2022/02/05 10:37:25;;;;;;;17.17;10.05;;;;;;;9.37;69.44;99918.03;6304676;28;20032;-68
2022/02/05 10:40:43;;;;;;;16.00;8.45;;;;;;;9.66;68.01;99926.78;6322109;28;20043;-69
2022/02/05 10:43:44;;;;;;;17.98;9.68;;;;;;;9.75;66.75;99933.19;6287652;28;20142;-69
2022/02/05 10:46:51;;;;;;;16.08;9.98;;;;;;;9.87;66.56;99948.09;6303994;28;20044;-68
2022/02/05 10:49:52;;;;;;;21.02;10.77;;;;;;;9.88;67.65;99947.16;6303740;28;20052;-73
2022/02/05 10:53:29;;;;;;;17.47;10.07;;;;;;;9.87;66.02;99963.75;6287366;28;20043;-72
2022/02/05 10:56:34;;;;;;;18.13;10.10;;;;;;;9.99;66.64;99973.44;6321737;28;20699;-73
2022/02/05 11:06:34;;;;;;;9.90;5.97;;;;;;;10.24;61.55;99966.75;6321688;28;20476;-70
2022/02/05 11:09:35;;;;;;;8.85;4.85;;;;;;;9.87;60.01;99971.56;6321440;28;20047;-69
2022/02/05 11:12:48;;;;;;;8.02;5.38;;;;;;;10.01;58.74;99968.13;6303579;28;20471;-70
2022/02/05 11:19:02;;;;;;;12.05;5.53;;;;;;;9.89;57.69;99970.53;6305105;28;20050;-73
2022/02/05 11:22:03;;;;;;;9.80;5.20;;;;;;;10.18;57.10;99975.75;6303290;28;20392;-73
2022/02/05 11:25:07;;;;;;;11.50;5.72;;;;;;;10.45;56.25;99969.81;6320696;28;20408;-73
2022/02/05 11:28:11;;;;;;;11.25;6.10;;;;;;;10.12;58.24;99981.34;6303258;28;20380;-73
2022/02/05 11:31:36;;;;;;;7.15;4.28;;;;;;;9.47;58.01;99984.28;6303205;28;20142;-73
2022/02/05 11:34:39;;;;;;;9.00;4.50;;;;;;;9.38;57.51;99982.22;6321119;28;20036;-73
2022/02/05 11:38:03;;;;;;;8.18;4.72;;;;;;;9.48;60.56;99994.63;6271738;28;20044;-73
2022/02/05 11:41:06;;;;;;;17.40;6.07;;;;;;;8.86;64.36;100006.81;6302894;28;20040;-72
2022/02/05 11:44:37;;;;;;;17.33;11.15;;;;;;;8.35;69.25;100014.66;6303095;28;20054;-72
2022/02/05 11:47:37;;;;;;;19.95;12.68;;;;;;;7.87;71.04;100024.91;6321067;28;20411;-68
2022/02/05 11:50:38;;;;;;;25.42;14.07;;;;;;;7.41;73.50;100040.16;6320745;28;20052;-68
2022/02/05 11:54:14;;;;;;;25.58;14.65;;;;;;;7.44;72.07;100046.97;6302879;28;20040;-68
2022/02/05 11:57:15;;;;;;;22.10;14.02;;;;;;;7.90;71.65;100038.66;6303625;28;20055;-68
2022/02/05 12:00:23;;;;;;;25.13;14.52;;;;;;;8.47;68.49;100034.03;6302762;28;20036;-68
2022/02/05 12:03:33;;;;;;;28.02;14.73;;;;;;;8.46;68.24;100035.78;6303658;28;20119;-68
2022/02/05 12:06:52;;;;;;;31.10;15.93;;;;;;;8.63;65.84;100027.09;6320778;28;20106;-68
2022/02/05 12:09:53;;;;;;;24.17;14.45;;;;;;;9.39;66.12;100035.97;6302582;28;20040;-68
2022/02/05 12:13:13;;;;;;;22.70;12.93;;;;;;;9.57;62.39;100029.72;6320702;28;20047;-72
2022/02/05 12:16:19;;;;;;;17.95;11.18;;;;;;;9.54;60.17;100037.72;6320434;28;20088;-72
2022/02/05 12:19:27;;;;;;;18.20;11.43;;;;;;;9.43;61.00;100033.13;6320574;28;20442;-72
2022/02/05 12:23:08;;;;;;;23.67;13.20;;;;;;;9.23;61.89;100055.06;6302377;28;20043;-69
2022/02/05 12:26:08;;;;;;;25.25;14.35;;;;;;;8.70;64.13;100055.38;6302500;28;20048;-72
2022/02/05 12:29:23;;;;;;;22.58;12.88;;;;;;;8.52;65.58;100060.63;6320674;28;20044;-73
2022/02/05 12:32:27;;;;;;;30.25;16.05;;;;;;;8.91;65.42;100066.41;6320360;28;20044;-74
2022/02/05 12:35:28;;;;;;;36.28;16.17;;;;;;;8.94;64.74;100068.84;6302318;28;20063;-74
2022/02/05 12:38:29;;;;;;;23.35;14.07;;;;;;;8.60;65.54;100075.81;6307155;28;20408;-73
2022/02/05 12:41:30;;;;;;;27.00;17.17;;;;;;;8.25;67.67;100083.66;6306822;28;20054;-74
2022/02/05 12:44:36;;;;;;;28.30;15.55;;;;;;;7.54;69.68;100100.13;6306989;28;20051;-73
2022/02/05 12:47:42;;;;;;;27.08;15.63;;;;;;;7.23;71.01;100098.13;6306781;28;20036;-74
2022/02/05 12:50:44;;;;;;;32.33;20.80;;;;;;;7.12;72.04;100100.38;6306666;28;20090;-72
2022/02/05 12:53:45;;;;;;;32.78;18.38;;;;;;;6.94;71.85;100102.03;6290410;28;20040;-73
2022/02/05 12:56:47;;;;;;;30.65;16.77;;;;;;;6.96;71.83;100102.81;6324656;28;20404;-73
2022/02/05 12:59:48;;;;;;;24.67;15.43;;;;;;;6.65;72.22;100101.59;6324612;28;20047;-73
2022/02/05 13:02:49;;;;;;;32.80;20.05;;;;;;;6.95;72.68;100106.34;6324511;28;20036;-72
2022/02/05 13:05:50;;;;;;;38.60;20.65;;;;;;;7.00;71.93;100106.94;6324424;28;20404;-73
2022/02/05 13:08:51;;;;;;;34.75;20.95;;;;;;;6.90;71.42;100103.97;6306498;28;20067;-75
2022/02/05 13:12:02;;;;;;;38.83;20.63;;;;;;;6.96;70.82;100102.81;6290081;28;20047;-72
2022/02/05 13:15:23;;;;;;;37.60;22.40;;;;;;;7.05;70.25;100112.78;6306392;28;20131;-73
2022/02/05 13:18:40;;;;;;;38.03;21.73;;;;;;;7.39;69.16;100127.66;6324149;28;20072;-73
2022/02/05 13:35:15;;;;;;;19.33;11.95;;;;;;;7.77;62.29;100137.16;6323679;28;20580;-69
2022/02/05 13:38:18;;;;;;;20.13;12.38;;;;;;;8.02;62.87;100142.81;6289100;28;20145;-73
2022/02/05 13:41:28;;;;;;;17.17;9.68;;;;;;;8.38;61.50;100149.72;6272375;28;20492;-69
2022/02/05 13:45:09;;;;;;;16.13;10.10;;;;;;;8.39;61.67;100150.56;6323670;28;20166;-69
2022/02/05 13:48:23;;;;;;;15.00;9.80;;;;;;;8.28;60.64;100167.53;6322725;28;20480;-68
2022/02/05 13:51:24;;;;;;;15.50;9.80;;;;;;;7.81;59.77;100175.88;6305176;28;20097;-69
2022/02/05 13:54:35;;;;;;;20.52;10.05;;;;;;;7.75;61.35;100176.16;6323141;28;20036;-70
2022/02/05 13:57:36;;;;;;;18.50;11.18;;;;;;;7.60;60.99;100175.16;6323670;28;20434;-70
2022/02/05 14:00:56;;;;;;;20.58;11.68;;;;;;;7.66;61.82;100177.47;6323076;28;20098;-69
2022/02/05 14:04:11;;;;;;;18.10;9.85;;;;;;;7.70;61.02;100180.75;6305198;28;20044;-68
2022/02/05 14:07:12;;;;;;;18.88;10.50;;;;;;;7.96;63.33;100178.66;6323001;28;20055;-69
2022/02/05 14:10:18;;;;;;;19.30;10.48;;;;;;;8.20;61.41;100190.47;6322948;28;20043;-69
2022/02/05 14:13:19;;;;;;;25.20;11.50;;;;;;;8.21;60.07;100197.34;6322715;28;20047;-72
2022/02/05 14:16:31;;;;;;;24.67;13.25;;;;;;;8.16;58.90;100193.31;6288037;28;20135;-71
2022/02/05 14:19:35;;;;;;;21.42;12.32;;;;;;;7.91;59.36;100185.81;6304774;28;20051;-73
2022/02/05 14:22:38;;;;;;;22.08;10.93;;;;;;;7.73;58.71;100185.78;6304870;28;20044;-69
2022/02/05 14:25:53;;;;;;;15.20;8.00;;;;;;;7.76;59.31;100182.19;6288597;28;20044;-72
2022/02/05 14:28:57;;;;;;;12.65;7.55;;;;;;;7.73;59.94;100200.53;6322628;28;20086;-68
2022/02/05 14:31:58;;;;;;;15.57;8.90;;;;;;;7.81;60.86;100198.44;6322287;28;20123;-68
2022/02/05 14:41:28;;;;;;;15.95;7.28;;;;;;;7.49;59.06;100207.69;6322133;28;20036;-72
2022/02/05 14:44:29;;;;;;;19.17;9.57;;;;;;;7.53;59.44;100211.84;6304052;28;20035;-68
2022/02/05 14:47:31;;;;;;;14.10;8.85;;;;;;;7.26;61.29;100213.00;6322072;28;20443;-68
2022/02/05 14:50:32;;;;;;;14.50;7.95;;;;;;;7.42;60.36;100214.94;6303599;28;20101;-73
2022/02/05 14:53:33;;;;;;;12.73;7.50;;;;;;;7.30;61.96;100224.09;6303909;28;20036;-72
2022/02/05 14:56:34;;;;;;;16.85;8.05;;;;;;;7.28;61.34;100230.28;6270572;28;20105;-69
2022/02/05 14:59:35;;;;;;;17.98;9.10;;;;;;;7.25;61.73;100234.69;6302949;28;20056;-69
2022/02/05 15:02:36;;;;;;;20.85;11.13;;;;;;;7.13;62.46;100240.44;6321657;28;20047;-72
2022/02/05 15:05:38;;;;;;;25.83;11.40;;;;;;;7.21;62.43;100243.53;6287173;28;20089;-73
2022/02/05 15:08:39;;;;;;;;;;;;;;;7.27;62.51;100255.41;6322102;28;20036;-72
2022/02/05 15:11:40;;;;;;;14.60;7.38;;;;;;;7.31;61.08;100259.56;6321450;28;19958;-69
2022/02/05 15:14:41;;;;;;;13.55;7.22;;;;;;;7.28;60.70;100261.44;6303079;28;20522;-69
2022/02/05 15:17:44;;;;;;;17.90;8.73;;;;;;;7.25;60.87;100257.22;6303388;28;20079;-69
2022/02/05 15:20:45;;;;;;;20.15;11.85;;;;;;;7.13;61.09;100258.59;6270710;28;21018;-69
2022/02/05 15:23:46;;;;;;;14.60;8.80;;;;;;;7.02;61.34;100263.41;6321193;28;20064;-69
2022/02/05 15:26:47;;;;;;;45.20;20.73;;;;;;;6.89;60.92;100276.03;6321365;28;20044;-72
2022/02/05 15:29:48;;;;;;;52.88;27.77;;;;;;;6.92;60.35;100286.31;6321149;28;20047;-68
2022/02/05 15:32:49;;;;;;;47.60;21.30;;;;;;;6.89;60.05;100295.97;6303099;28;20071;-69
2022/02/05 15:35:52;;;;;;;40.92;15.07;;;;;;;6.79;60.50;100295.50;6321132;28;20388;-68
2022/02/05 15:45:16;;;;;;;41.28;17.77;;;;;;;6.60;62.54;100300.59;6321026;28;20488;-72
2022/02/05 15:48:17;;;;;;;43.15;18.75;;;;;;;6.52;61.83;100305.25;6303026;28;20044;-68
2022/02/05 15:51:19;;;;;;;48.45;22.02;;;;;;;6.46;62.58;100316.69;6320606;28;20052;-70
2022/02/05 15:54:22;;;;;;;94.43;41.22;;;;;;;6.37;63.22;100323.09;6302668;28;20067;-68
2022/02/05 16:00:34;;;;;;;112.78;50.42;;;;;;;6.18;63.99;100320.38;6287436;28;20055;-68
2022/02/05 16:03:35;;;;;;;143.40;65.93;;;;;;;6.11;63.63;100325.84;6302845;28;20043;-68
2022/02/05 16:06:36;;;;;;;105.22;49.92;;;;;;;6.02;64.39;100327.88;6302753;28;20040;-68
2022/02/05 16:09:37;;;;;;;97.13;40.63;;;;;;;5.88;64.74;100334.47;6320704;28;20071;-72
2022/02/05 16:12:40;;;;;;;62.92;28.50;;;;;;;5.76;65.28;100333.16;6293227;28;20385;-67
2022/02/05 16:15:41;;;;;;;66.90;31.75;;;;;;;5.63;65.82;100337.94;6297704;28;20044;-68
2022/02/05 16:18:41;;;;;;;74.70;30.48;;;;;;;5.20;66.94;100350.63;6302463;28;20036;-68
2022/02/05 16:21:42;;;;;;;55.15;25.90;;;;;;;5.12;68.15;100350.06;6307690;28;20097;-72
2022/02/05 16:24:43;;;;;;;50.33;23.45;;;;;;;5.15;68.88;100360.31;6282501;28;20079;-72
2022/02/05 16:27:50;;;;;;;60.30;26.42;;;;;;;5.04;69.38;100363.25;6266112;28;20540;-73
2022/02/05 16:30:56;;;;;;;54.03;23.92;;;;;;;4.96;69.91;100367.84;6282484;28;20051;-72
2022/02/05 16:34:05;;;;;;;72.05;34.00;;;;;;;4.94;70.21;100364.47;6300167;28;20485;-68
2022/02/05 16:37:08;;;;;;;71.18;36.20;;;;;;;4.96;69.53;100372.16;6300113;28;20047;-72
2022/02/05 16:40:14;;;;;;;62.83;30.20;;;;;;;4.88;69.84;100367.25;6282644;28;20503;-72
2022/02/05 16:43:15;;;;;;;63.63;34.63;;;;;;;4.79;70.10;100383.03;6265821;28;20515;-72
2022/02/05 16:46:22;;;;;;;78.53;41.10;;;;;;;4.74;70.58;100388.38;6282147;28;20040;-72
2022/02/05 16:49:24;;;;;;;62.88;33.45;;;;;;;4.60;71.55;100391.38;6299586;28;20378;-72
2022/02/05 16:52:29;;;;;;;43.47;20.73;;;;;;;4.44;72.83;100382.41;6282082;28;20090;-69
2022/02/05 16:55:31;;;;;;;38.63;19.48;;;;;;;4.26;74.00;100393.28;6299571;28;20143;-69
2022/02/05 16:58:32;;;;;;;37.38;21.45;;;;;;;4.21;74.51;100390.84;6318311;28;20051;-68
2022/02/05 17:01:33;;;;;;;49.50;23.52;;;;;;;4.15;75.24;100393.59;6306652;28;20072;-68
2022/02/05 17:04:34;;;;;;;47.45;24.38;;;;;;;4.18;75.54;100391.78;6306566;28;20450;-68
2022/02/05 17:07:35;;;;;;;50.95;23.50;;;;;;;4.18;75.88;100390.91;6289899;28;20085;-69
2022/02/05 17:10:37;;;;;;;42.97;20.95;;;;;;;4.26;76.45;100395.84;6306463;28;20048;-68